createdAt,value
2022-09-25T00:01:26.525Z,13.10
2022-09-25T00:03:56.286Z,13.10
2022-09-25T00:06:26.435Z,13.10
2022-09-25T00:08:54.910Z,13.10
2022-09-25T00:11:25.510Z,13.20
2022-09-25T00:13:53.705Z,13.10
2022-09-25T00:16:25.272Z,13.20
2022-09-25T00:19:10.733Z,13.10
2022-09-25T00:21:40.235Z,13.10
2022-09-25T00:24:10.823Z,13.10
2022-09-25T00:26:41.220Z,13.10
2022-09-25T00:29:13.154Z,13.10
2022-09-25T00:31:41.803Z,13.10
2022-09-25T00:34:11.231Z,13.10
2022-09-25T00:36:40.635Z,13.10
2022-09-25T00:39:08.588Z,13.10
2022-09-25T00:41:36.771Z,13.20
2022-09-25T00:44:25.673Z,13.10
2022-09-25T00:46:53.851Z,13.10
2022-09-25T00:49:25.271Z,13.20
2022-09-25T00:51:58.723Z,13.10
2022-09-25T00:54:33.501Z,13.20
2022-09-25T00:57:05.021Z,13.10
2022-09-25T00:59:37.557Z,13.20
2022-09-25T01:02:06.162Z,13.20
2022-09-25T01:04:38.117Z,13.20
2022-09-25T01:07:09.145Z,13.20
2022-09-25T01:09:37.476Z,13.20
2022-09-25T01:12:05.603Z,13.20
2022-09-25T01:14:35.884Z,13.10
2022-09-25T01:17:08.361Z,13.10
2022-09-25T01:19:53.056Z,13.10
2022-09-25T01:22:37.810Z,13.10
2022-09-25T01:25:14.890Z,13.10
2022-09-25T01:28:11.644Z,13.10
2022-09-25T01:30:45.564Z,13.10
2022-09-25T01:33:19.444Z,13.20
2022-09-25T01:35:52.933Z,13.10
2022-09-25T01:38:31.534Z,13.10
2022-09-25T01:41:06.069Z,13.20
2022-09-25T01:43:39.625Z,13.10
2022-09-25T01:46:13.353Z,13.20
2022-09-25T01:48:43.569Z,13.20
2022-09-25T01:51:17.495Z,13.10
2022-09-25T01:53:49.610Z,13.20
2022-09-25T01:56:23.013Z,13.10
2022-09-25T01:58:54.513Z,13.20
2022-09-25T02:01:28.175Z,13.20
2022-09-25T02:03:58.853Z,13.10
2022-09-25T02:06:27.252Z,13.10
2022-09-25T02:09:02.974Z,13.20
2022-09-25T02:11:37.568Z,13.10
2022-09-25T02:14:13.055Z,13.20
2022-09-25T02:16:45.098Z,13.10
2022-09-25T02:19:32.933Z,13.10
2022-09-25T02:22:08.308Z,13.10
2022-09-25T02:24:44.257Z,13.10
2022-09-25T02:27:12.627Z,13.10
2022-09-25T02:29:40.636Z,13.10
2022-09-25T02:32:14.113Z,13.10
2022-09-25T02:34:43.079Z,13.10
2022-09-25T02:37:12.649Z,13.10
2022-09-25T02:39:41.300Z,13.10
2022-09-25T02:42:25.551Z,13.10
2022-09-25T02:45:11.308Z,13.10
2022-09-25T02:47:51.597Z,13.10
2022-09-25T02:50:26.106Z,13.10
2022-09-25T02:53:04.323Z,13.10
2022-09-25T02:55:39.972Z,13.10
2022-09-25T02:58:14.788Z,13.10
2022-09-25T03:00:46.889Z,13.10
2022-09-25T03:03:19.766Z,13.10
2022-09-25T03:05:50.252Z,13.10
2022-09-25T03:08:36.664Z,13.10
2022-09-25T03:11:05.737Z,13.10
2022-09-25T03:13:34.188Z,13.10
2022-09-25T03:16:05.829Z,13.10
2022-09-25T03:18:35.379Z,13.10
2022-09-25T03:21:04.211Z,13.10
2022-09-25T03:23:32.650Z,13.10
2022-09-25T03:26:01.180Z,13.10
2022-09-25T03:28:29.238Z,13.10
2022-09-25T03:30:59.644Z,13.10
2022-09-25T03:33:29.577Z,13.10
2022-09-25T03:36:11.563Z,13.10
2022-09-25T03:38:41.251Z,13.10
2022-09-25T03:41:11.046Z,13.10
2022-09-25T03:43:42.478Z,13.10
2022-09-25T03:46:12.891Z,13.10
2022-09-25T03:48:41.919Z,13.10
2022-09-25T03:51:11.837Z,13.10
2022-09-25T03:53:40.130Z,13.00
2022-09-25T03:56:10.301Z,13.00
2022-09-25T03:58:38.261Z,13.00
2022-09-25T04:01:07.284Z,13.00
2022-09-25T04:03:35.941Z,13.00
2022-09-25T04:06:05.865Z,13.00
2022-09-25T04:08:36.671Z,13.00
2022-09-25T04:11:05.235Z,13.00
2022-09-25T04:13:36.230Z,13.00
2022-09-25T04:16:06.370Z,13.00
2022-09-25T04:18:34.956Z,13.00
2022-09-25T04:21:05.079Z,13.00
2022-09-25T04:23:36.456Z,12.90
2022-09-25T04:26:04.865Z,12.80
2022-09-25T04:28:34.082Z,12.90
2022-09-25T04:31:04.340Z,12.90
2022-09-25T04:33:47.961Z,12.90
2022-09-25T04:36:16.962Z,12.90
2022-09-25T04:38:46.547Z,12.90
2022-09-25T04:41:16.529Z,12.80
2022-09-25T04:43:44.614Z,12.80
2022-09-25T04:46:20.051Z,12.90
2022-09-25T04:48:49.183Z,12.90
2022-09-25T04:51:17.103Z,12.90
2022-09-25T04:53:48.267Z,12.80
2022-09-25T04:56:16.969Z,12.80
2022-09-25T04:58:47.392Z,12.80
2022-09-25T05:01:16.191Z,12.90
2022-09-25T05:03:44.246Z,12.90
2022-09-25T05:06:12.559Z,12.90
2022-09-25T05:08:40.520Z,12.80
2022-09-25T05:11:09.934Z,12.90
2022-09-25T05:13:38.316Z,12.80
2022-09-25T05:16:06.742Z,12.90
2022-09-25T05:18:34.928Z,12.90
2022-09-25T05:21:06.169Z,12.90
2022-09-25T05:23:34.181Z,12.90
2022-09-25T05:26:02.963Z,12.90
2022-09-25T05:28:33.272Z,12.90
2022-09-25T05:31:02.819Z,12.80
2022-09-25T05:33:31.115Z,12.80
2022-09-25T05:36:03.024Z,12.80
2022-09-25T05:38:33.741Z,12.80
2022-09-25T05:41:04.910Z,12.80
2022-09-25T05:43:35.338Z,12.80
2022-09-25T05:46:03.359Z,12.80
2022-09-25T05:48:31.979Z,12.80
2022-09-25T05:51:00.471Z,12.80
2022-09-25T05:53:29.231Z,12.90
2022-09-25T05:56:00.495Z,12.80
2022-09-25T05:58:30.427Z,12.90
2022-09-25T06:01:03.210Z,12.80
2022-09-25T06:03:31.759Z,12.80
2022-09-25T06:06:00.897Z,12.80
2022-09-25T06:08:31.110Z,12.90
2022-09-25T06:11:00.767Z,12.90
2022-09-25T06:13:29.279Z,12.90
2022-09-25T06:15:57.300Z,12.90
2022-09-25T06:18:27.593Z,12.90
2022-09-25T06:21:01.785Z,12.90
2022-09-25T06:23:29.941Z,12.90
2022-09-25T06:26:01.868Z,12.90
2022-09-25T06:28:31.057Z,12.90
2022-09-25T06:31:01.743Z,12.90
2022-09-25T06:33:31.920Z,12.90
2022-09-25T06:36:00.738Z,12.90
2022-09-25T06:38:29.363Z,12.90
2022-09-25T06:41:00.390Z,12.90
2022-09-25T06:43:29.695Z,13.00
2022-09-25T06:46:02.636Z,13.00
2022-09-25T06:48:32.522Z,13.00
2022-09-25T06:51:02.249Z,13.00
2022-09-25T06:53:30.401Z,13.10
2022-09-25T06:56:00.011Z,13.10
2022-09-25T06:58:29.013Z,13.20
2022-09-25T07:00:57.417Z,13.20
2022-09-25T07:03:43.891Z,13.20
2022-09-25T07:06:15.311Z,13.20
2022-09-25T07:08:44.106Z,13.20
2022-09-25T07:11:15.207Z,13.20
2022-09-25T07:13:43.642Z,13.20
2022-09-25T07:16:14.916Z,13.10
2022-09-25T07:18:43.911Z,13.10
2022-09-25T07:21:14.630Z,13.10
2022-09-25T07:23:43.304Z,13.20
2022-09-25T07:26:13.435Z,13.30
2022-09-25T07:28:44.536Z,13.30
2022-09-25T07:31:17.520Z,13.30
2022-09-25T07:33:46.236Z,13.30
2022-09-25T07:36:18.696Z,13.20
2022-09-25T07:38:51.497Z,13.30
2022-09-25T07:41:23.278Z,13.30
2022-09-25T07:44:06.247Z,13.30
2022-09-25T07:46:44.949Z,13.30
2022-09-25T07:49:14.706Z,13.40
2022-09-25T07:51:44.325Z,13.50
2022-09-25T07:54:12.321Z,13.50
2022-09-25T07:56:40.331Z,13.50
2022-09-25T07:59:08.635Z,13.50
2022-09-25T08:01:41.164Z,13.40
2022-09-25T08:04:12.270Z,13.50
2022-09-25T08:06:40.324Z,13.60
2022-09-25T08:09:11.290Z,13.60
2022-09-25T08:11:39.467Z,13.60
2022-09-25T08:14:07.540Z,13.60
2022-09-25T08:16:37.634Z,13.70
2022-09-25T08:19:05.613Z,13.80
2022-09-25T08:21:34.988Z,13.80
2022-09-25T08:24:04.064Z,13.80
2022-09-25T08:26:33.327Z,13.80
2022-09-25T08:29:01.382Z,13.80
2022-09-25T08:31:29.426Z,13.80
2022-09-25T08:34:06.125Z,13.80
2022-09-25T08:36:38.204Z,13.90
2022-09-25T08:39:07.210Z,14.10
2022-09-25T08:41:45.670Z,14.10
2022-09-25T08:44:22.217Z,14.10
2022-09-25T08:47:17.055Z,14.10
2022-09-25T08:50:01.666Z,14.00
2022-09-25T08:52:31.126Z,14.00
2022-09-25T08:55:00.140Z,14.00
2022-09-25T08:57:35.096Z,14.00
2022-09-25T09:00:07.673Z,14.00
2022-09-25T09:02:41.528Z,14.10
2022-09-25T09:05:18.101Z,14.10
2022-09-25T09:07:51.176Z,14.20
2022-09-25T09:10:29.769Z,14.20
2022-09-25T09:13:04.859Z,14.30
2022-09-25T09:15:38.394Z,14.30
2022-09-25T09:18:17.730Z,14.40
2022-09-25T09:20:52.178Z,14.40
2022-09-25T09:23:22.774Z,14.60
2022-09-25T09:26:02.632Z,14.70
2022-09-25T09:29:04.275Z,14.80
2022-09-25T09:31:44.684Z,14.90
2022-09-25T09:35:05.323Z,14.80
2022-09-25T09:37:46.738Z,14.70
2022-09-25T09:40:37.031Z,14.80
2022-09-25T09:43:14.455Z,15.00
2022-09-25T09:45:49.311Z,15.10
2022-09-25T09:48:29.162Z,15.00
2022-09-25T09:51:02.062Z,15.00
2022-09-25T09:53:35.382Z,15.00
2022-09-25T09:56:11.078Z,14.90
2022-09-25T09:58:47.113Z,14.90
2022-09-25T10:01:40.369Z,15.00
2022-09-25T10:04:12.079Z,15.10
2022-09-25T10:06:43.752Z,15.20
2022-09-25T10:09:16.435Z,15.20
2022-09-25T10:11:46.637Z,15.20
2022-09-25T10:14:20.956Z,15.40
2022-09-25T10:16:52.856Z,15.50
2022-09-25T10:19:25.054Z,15.70
2022-09-25T10:21:58.080Z,15.80
2022-09-25T10:24:55.389Z,15.90
2022-09-25T10:27:28.691Z,15.90
2022-09-25T10:30:21.706Z,15.80
2022-09-25T10:32:58.975Z,15.70
2022-09-25T10:35:30.958Z,15.80
2022-09-25T10:38:01.765Z,15.70
2022-09-25T10:40:34.061Z,15.80
2022-09-25T10:43:15.202Z,15.80
2022-09-25T10:45:43.593Z,16.00
2022-09-25T10:48:48.203Z,16.10
2022-09-25T10:51:18.138Z,16.10
2022-09-25T10:53:47.143Z,16.10
2022-09-25T10:56:20.512Z,16.20
2022-09-25T10:58:55.294Z,16.30
2022-09-25T11:01:33.636Z,16.50
2022-09-25T11:04:06.007Z,16.50
2022-09-25T11:06:35.792Z,16.40
2022-09-25T11:09:08.886Z,16.30
2022-09-25T11:11:39.765Z,16.20
2022-09-25T11:14:18.814Z,16.10
2022-09-25T11:16:50.855Z,15.90
2022-09-25T11:19:25.579Z,15.90
2022-09-25T11:22:01.098Z,15.90
2022-09-25T11:24:40.550Z,15.80
2022-09-25T11:27:13.491Z,15.80
2022-09-25T11:29:47.312Z,15.70
2022-09-25T11:32:22.827Z,15.70
2022-09-25T11:35:33.568Z,15.80
2022-09-25T11:38:13.225Z,15.80
2022-09-25T11:41:09.500Z,15.90
2022-09-25T11:43:52.066Z,16.00
2022-09-25T11:46:30.212Z,16.10
2022-09-25T11:49:12.398Z,16.20
2022-09-25T11:52:24.011Z,16.20
2022-09-25T11:55:21.834Z,16.20
2022-09-25T11:58:01.415Z,16.30
2022-09-25T12:00:36.162Z,16.40
2022-09-25T12:03:19.469Z,16.40
2022-09-25T12:06:05.215Z,16.40
2022-09-25T12:08:47.814Z,16.50
2022-09-25T12:11:26.213Z,16.40
2022-09-25T12:13:59.700Z,16.50
2022-09-25T12:16:38.397Z,16.50
2022-09-25T12:19:23.596Z,16.40
2022-09-25T12:22:01.529Z,16.40
2022-09-25T12:24:41.951Z,16.40
2022-09-25T12:27:21.116Z,16.50
2022-09-25T12:30:14.251Z,16.70
2022-09-25T12:33:10.096Z,16.70
2022-09-25T12:35:48.255Z,16.80
2022-09-25T12:38:25.691Z,16.90
2022-09-25T12:41:01.376Z,16.90
2022-09-25T12:43:36.469Z,17.30
2022-09-25T12:46:10.841Z,17.40
2022-09-25T12:48:44.018Z,17.50
2022-09-25T12:51:17.360Z,17.40
2022-09-25T12:53:49.439Z,17.40
2022-09-25T12:56:22.608Z,17.20
2022-09-25T12:59:03.631Z,17.10
2022-09-25T13:01:39.846Z,17.10
2022-09-25T13:04:21.366Z,17.10
2022-09-25T13:06:53.110Z,17.30
2022-09-25T13:09:30.588Z,17.50
2022-09-25T13:12:06.035Z,17.60
2022-09-25T13:14:41.835Z,17.70
2022-09-25T13:17:12.854Z,17.80
2022-09-25T13:19:40.870Z,17.70
2022-09-25T13:22:16.048Z,17.70
2022-09-25T13:24:47.794Z,17.50
2022-09-25T13:27:21.119Z,17.60
2022-09-25T13:29:57.708Z,17.70
2022-09-25T13:32:31.767Z,17.70
2022-09-25T13:35:03.222Z,17.40
2022-09-25T13:37:33.765Z,17.30
2022-09-25T13:40:28.145Z,17.20
2022-09-25T13:43:20.805Z,17.10
2022-09-25T13:46:24.185Z,17.10
2022-09-25T13:48:53.038Z,17.00
2022-09-25T13:51:36.706Z,17.00
2022-09-25T13:54:26.941Z,16.90
2022-09-25T13:56:55.435Z,16.80
2022-09-25T13:59:39.045Z,16.80
2022-09-25T14:02:42.772Z,16.90
2022-09-25T14:05:16.997Z,16.90
2022-09-25T14:07:46.851Z,17.00
2022-09-25T14:10:15.421Z,17.10
2022-09-25T14:12:46.080Z,17.10
2022-09-25T14:15:27.981Z,17.20
2022-09-25T14:18:01.129Z,17.20
2022-09-25T14:20:35.787Z,17.10
2022-09-25T14:23:07.791Z,17.00
2022-09-25T14:25:38.330Z,16.90
2022-09-25T14:28:20.583Z,16.80
2022-09-25T14:31:06.380Z,16.70
2022-09-25T14:33:49.209Z,16.70
2022-09-25T14:36:27.765Z,16.70
2022-09-25T14:39:19.635Z,16.70
2022-09-25T14:42:18.780Z,16.60
2022-09-25T14:45:12.658Z,16.60
2022-09-25T14:47:44.609Z,16.60
2022-09-25T14:50:22.007Z,16.70
2022-09-25T14:52:52.687Z,16.70
2022-09-25T14:55:24.628Z,16.60
2022-09-25T14:57:53.605Z,16.70
2022-09-25T15:00:24.616Z,16.60
2022-09-25T15:02:55.716Z,16.60
2022-09-25T15:05:34.955Z,16.60
2022-09-25T15:08:19.823Z,16.50
2022-09-25T15:10:48.101Z,16.50
2022-09-25T15:13:17.724Z,16.40
2022-09-25T15:16:02.285Z,16.40
2022-09-25T15:18:32.098Z,16.30
2022-09-25T15:21:02.139Z,16.30
2022-09-25T15:23:34.347Z,16.30
2022-09-25T15:26:03.210Z,16.20
2022-09-25T15:28:40.473Z,16.20
2022-09-25T15:31:08.950Z,16.10
2022-09-25T15:33:39.847Z,16.10
2022-09-25T15:36:17.674Z,16.10
2022-09-25T15:38:52.603Z,16.10
2022-09-25T15:41:22.523Z,16.10
2022-09-25T15:43:51.196Z,16.10
2022-09-25T15:46:38.069Z,16.10
2022-09-25T15:49:06.980Z,16.10
2022-09-25T15:51:38.246Z,16.10
2022-09-25T15:54:28.286Z,16.10
2022-09-25T15:56:58.402Z,16.00
2022-09-25T15:59:29.114Z,16.00
2022-09-25T16:02:15.229Z,15.90
2022-09-25T16:04:49.620Z,15.90
2022-09-25T16:07:34.314Z,15.80
2022-09-25T16:10:05.292Z,15.80
2022-09-25T16:12:36.019Z,15.80
2022-09-25T16:15:48.615Z,15.70
2022-09-25T16:18:37.201Z,15.70
2022-09-25T16:21:20.279Z,15.60
2022-09-25T16:24:01.934Z,15.50
2022-09-25T16:26:37.180Z,15.50
2022-09-25T16:29:14.773Z,15.50
2022-09-25T16:31:44.814Z,15.40
2022-09-25T16:34:21.920Z,15.40
2022-09-25T16:36:51.524Z,15.40
2022-09-25T16:39:30.248Z,15.40
2022-09-25T16:42:00.113Z,15.30
2022-09-25T16:44:47.175Z,15.30
2022-09-25T16:47:18.769Z,15.30
2022-09-25T16:49:47.192Z,15.20
2022-09-25T16:52:20.564Z,15.20
2022-09-25T16:54:54.219Z,15.20
2022-09-25T16:57:23.380Z,15.10
2022-09-25T16:59:52.967Z,15.10
2022-09-25T17:02:32.811Z,15.00
2022-09-25T17:05:03.622Z,15.00
2022-09-25T17:07:31.688Z,14.90
2022-09-25T17:10:03.365Z,14.80
2022-09-25T17:12:32.699Z,14.80
2022-09-25T17:15:00.874Z,14.70
2022-09-25T17:17:31.033Z,14.60
2022-09-25T17:19:59.039Z,14.50
2022-09-25T17:22:30.260Z,14.50
2022-09-25T17:25:03.117Z,14.40
2022-09-25T17:27:31.095Z,14.30
2022-09-25T17:29:59.055Z,14.30
2022-09-25T17:32:29.374Z,14.20
2022-09-25T17:34:58.512Z,14.20
2022-09-25T17:37:26.887Z,14.10
2022-09-25T17:39:55.996Z,14.10
2022-09-25T17:42:26.716Z,14.00
2022-09-25T17:44:54.994Z,14.00
2022-09-25T17:47:23.023Z,13.90
2022-09-25T17:49:50.911Z,13.80
2022-09-25T17:52:21.670Z,13.80
2022-09-25T17:54:49.671Z,13.70
2022-09-25T17:57:17.583Z,13.60
2022-09-25T17:59:46.970Z,13.60
2022-09-25T18:02:19.212Z,13.50
2022-09-25T18:04:47.294Z,13.40
2022-09-25T18:07:15.674Z,13.30
2022-09-25T18:09:43.812Z,13.30
2022-09-25T18:12:11.968Z,13.30
2022-09-25T18:14:40.107Z,13.20
2022-09-25T18:17:09.356Z,13.20
2022-09-25T18:19:54.779Z,13.20
2022-09-25T18:22:25.573Z,13.10
2022-09-25T18:24:56.283Z,13.20
2022-09-25T18:27:25.764Z,13.20
2022-09-25T18:29:54.100Z,13.10
2022-09-25T18:32:24.120Z,13.00
2022-09-25T18:34:52.187Z,13.00
2022-09-25T18:37:20.125Z,13.00
2022-09-25T18:39:48.149Z,12.90
2022-09-25T18:42:16.190Z,12.80
2022-09-25T18:44:44.126Z,12.70
2022-09-25T18:47:12.511Z,12.70
2022-09-25T18:49:43.633Z,12.60
2022-09-25T18:52:11.698Z,12.60
2022-09-25T18:54:41.949Z,12.60
2022-09-25T18:57:10.314Z,12.60
2022-09-25T18:59:38.740Z,12.60
2022-09-25T19:02:07.964Z,12.60
2022-09-25T19:04:37.690Z,12.60
2022-09-25T19:07:08.700Z,12.60
2022-09-25T19:09:36.641Z,12.50
2022-09-25T19:12:07.174Z,12.50
2022-09-25T19:14:35.288Z,12.50
2022-09-25T19:17:03.548Z,12.50
2022-09-25T19:19:32.875Z,12.50
2022-09-25T19:22:01.612Z,12.50
2022-09-25T19:24:31.679Z,12.40
2022-09-25T19:26:59.798Z,12.40
2022-09-25T19:29:27.715Z,12.50
2022-09-25T19:31:55.629Z,12.50
2022-09-25T19:34:24.040Z,12.50
2022-09-25T19:36:53.866Z,12.50
2022-09-25T19:39:22.057Z,12.50
2022-09-25T19:41:51.707Z,12.50
2022-09-25T19:44:19.897Z,12.50
2022-09-25T19:46:48.560Z,12.50
2022-09-25T19:49:18.045Z,12.50
2022-09-25T19:51:47.127Z,12.50
2022-09-25T19:54:16.470Z,12.50
2022-09-25T19:56:46.140Z,12.50
2022-09-25T19:59:17.356Z,12.50
2022-09-25T20:01:46.312Z,12.50
2022-09-25T20:04:18.634Z,12.50
2022-09-25T20:06:48.645Z,12.50
2022-09-25T20:09:16.799Z,12.60
2022-09-25T20:11:45.431Z,12.50
2022-09-25T20:14:14.777Z,12.50
2022-09-25T20:16:42.738Z,12.60
2022-09-25T20:19:11.584Z,12.60
2022-09-25T20:21:41.432Z,12.60
2022-09-25T20:24:10.189Z,12.60
2022-09-25T20:26:39.013Z,12.60
2022-09-25T20:29:12.432Z,12.60
2022-09-25T20:31:43.899Z,12.60
2022-09-25T20:34:14.150Z,12.70
2022-09-25T20:36:42.295Z,12.70
2022-09-25T20:39:10.596Z,12.70
2022-09-25T20:41:39.098Z,12.70
2022-09-25T20:44:07.496Z,12.70
2022-09-25T20:46:35.640Z,12.70
2022-09-25T20:49:05.112Z,12.70
2022-09-25T20:51:35.735Z,12.70
2022-09-25T20:54:06.109Z,12.70
2022-09-25T20:56:36.006Z,12.70
2022-09-25T20:59:05.215Z,12.70
2022-09-25T21:01:37.628Z,12.70
2022-09-25T21:04:09.940Z,12.70
2022-09-25T21:06:39.197Z,12.70
2022-09-25T21:09:09.729Z,12.70
2022-09-25T21:11:40.432Z,12.70
2022-09-25T21:14:10.533Z,12.70
2022-09-25T21:16:38.531Z,12.70
2022-09-25T21:19:07.793Z,12.70
2022-09-25T21:21:36.305Z,12.70
2022-09-25T21:24:04.521Z,12.70
2022-09-25T21:26:33.617Z,12.70
2022-09-25T21:29:04.524Z,12.70
2022-09-25T21:31:34.697Z,12.70
2022-09-25T21:34:03.215Z,12.70
2022-09-25T21:36:33.264Z,12.70
2022-09-25T21:39:01.957Z,12.70
2022-09-25T21:41:31.472Z,12.80
2022-09-25T21:44:01.307Z,12.80
2022-09-25T21:46:29.970Z,12.70
2022-09-25T21:49:00.106Z,12.80
2022-09-25T21:51:30.102Z,12.80
2022-09-25T21:54:01.465Z,12.80
2022-09-25T21:56:32.417Z,12.80
2022-09-25T21:59:08.397Z,12.80
2022-09-25T22:01:39.547Z,12.70
2022-09-25T22:04:09.032Z,12.80
2022-09-25T22:06:38.953Z,12.70
2022-09-25T22:09:11.035Z,12.70
2022-09-25T22:11:39.935Z,12.70
2022-09-25T22:14:14.770Z,12.70
2022-09-25T22:16:45.729Z,12.70
2022-09-25T22:19:16.462Z,12.70
2022-09-25T22:21:46.353Z,12.70
2022-09-25T22:24:16.475Z,12.70
2022-09-25T22:26:46.323Z,12.70
2022-09-25T22:29:15.213Z,12.70
2022-09-25T22:31:44.234Z,12.70
2022-09-25T22:34:17.439Z,12.70
2022-09-25T22:36:46.581Z,12.70
2022-09-25T22:39:17.739Z,12.70
2022-09-25T22:41:46.103Z,12.70
2022-09-25T22:44:14.683Z,12.70
2022-09-25T22:46:42.532Z,12.70
2022-09-25T22:49:10.413Z,12.70
2022-09-25T22:51:38.422Z,12.70
2022-09-25T22:54:06.940Z,12.70
2022-09-25T22:56:37.275Z,12.70
2022-09-25T22:59:09.170Z,12.70
2022-09-25T23:01:39.356Z,12.60
2022-09-25T23:04:11.380Z,12.60
2022-09-25T23:06:40.160Z,12.60
2022-09-25T23:09:11.465Z,12.60
2022-09-25T23:11:41.885Z,12.70
2022-09-25T23:14:14.337Z,12.60
2022-09-25T23:16:42.676Z,12.60
2022-09-25T23:19:12.075Z,12.60
2022-09-25T23:21:40.308Z,12.60
2022-09-25T23:24:11.435Z,12.60
2022-09-25T23:26:40.977Z,12.60
2022-09-25T23:29:08.949Z,12.60
2022-09-25T23:31:36.889Z,12.60
2022-09-25T23:34:04.852Z,12.60
2022-09-25T23:36:32.821Z,12.60
2022-09-25T23:39:01.887Z,12.60
2022-09-25T23:41:31.979Z,12.60
2022-09-25T23:44:02.636Z,12.50
2022-09-25T23:46:32.883Z,12.50
2022-09-25T23:49:01.786Z,12.50
2022-09-25T23:51:30.327Z,12.50
2022-09-25T23:54:00.665Z,12.50
2022-09-25T23:56:30.284Z,12.50
2022-09-25T23:59:01.471Z,12.50
